createdAt,value
2023-01-04T00:02:45.688Z,5.55
2023-01-04T00:04:48.218Z,6.65
2023-01-04T00:06:50.150Z,5.32
2023-01-04T00:08:52.181Z,5.63
2023-01-04T00:10:54.189Z,5.95
2023-01-04T00:12:55.970Z,6.47
2023-01-04T00:14:57.720Z,6.47
2023-01-04T00:16:59.813Z,5.53
2023-01-04T00:19:01.548Z,4.57
2023-01-04T00:21:30.954Z,3.60
2023-01-04T00:23:33.037Z,3.90
2023-01-04T00:25:35.177Z,5.38
2023-01-04T00:27:37.312Z,6.22
2023-01-04T00:29:39.566Z,3.25
2023-01-04T00:31:41.954Z,4.28
2023-01-04T00:35:46.705Z,5.40
2023-01-04T00:37:52.075Z,3.88
2023-01-04T00:39:54.576Z,3.75
2023-01-04T00:42:05.128Z,6.38
2023-01-04T00:44:07.950Z,5.30
2023-01-04T00:46:11.717Z,3.95
2023-01-04T00:48:14.015Z,3.53
2023-01-04T00:50:16.172Z,4.13
2023-01-04T00:52:18.388Z,3.45
2023-01-04T00:54:21.278Z,5.10
2023-01-04T00:56:23.555Z,6.43
2023-01-04T00:58:25.867Z,4.20
2023-01-04T01:00:28.258Z,2.72
2023-01-04T01:02:30.711Z,3.88
2023-01-04T01:04:33.004Z,5.35
2023-01-04T01:06:35.321Z,4.38
2023-01-04T01:08:37.897Z,3.00
2023-01-04T01:12:42.234Z,4.50
2023-01-04T01:14:44.470Z,4.00
2023-01-04T01:16:56.513Z,3.42
2023-01-04T01:18:59.769Z,3.83
2023-01-04T01:21:04.997Z,2.95
2023-01-04T01:23:07.502Z,4.38
2023-01-04T01:27:12.038Z,2.90
2023-01-04T01:29:14.382Z,4.72
2023-01-04T01:31:18.078Z,3.25
2023-01-04T01:33:20.552Z,6.72
2023-01-04T01:35:22.754Z,5.30
2023-01-04T01:37:24.946Z,3.78
2023-01-04T01:39:27.203Z,3.10
2023-01-04T01:41:30.880Z,6.85
2023-01-04T01:43:51.864Z,5.30
2023-01-04T01:45:55.978Z,6.72
2023-01-04T01:48:18.437Z,4.10
2023-01-04T01:50:42.265Z,3.05
2023-01-04T01:52:44.415Z,5.93
2023-01-04T01:54:48.379Z,3.45
2023-01-04T01:56:51.920Z,3.38
2023-01-04T01:58:54.943Z,4.18
2023-01-04T02:00:57.092Z,5.68
2023-01-04T02:02:59.414Z,5.22
2023-01-04T02:05:02.821Z,3.05
2023-01-04T02:07:05.201Z,5.28
2023-01-04T02:09:07.372Z,3.85
2023-01-04T02:11:10.158Z,3.45
2023-01-04T02:13:13.532Z,4.40
2023-01-04T02:15:15.765Z,3.75
2023-01-04T02:17:23.369Z,4.28
2023-01-04T02:19:28.479Z,4.10
2023-01-04T02:21:39.328Z,3.55
2023-01-04T02:23:41.419Z,4.53
2023-01-04T02:25:46.300Z,6.35
2023-01-04T02:28:11.457Z,2.38
2023-01-04T02:30:23.802Z,6.15
2023-01-04T02:32:39.042Z,2.67
2023-01-04T02:34:56.481Z,4.95
2023-01-04T02:37:09.537Z,3.20
2023-01-04T02:39:30.341Z,4.15
2023-01-04T02:41:40.358Z,5.63
2023-01-04T02:44:13.650Z,4.88
2023-01-04T02:48:36.716Z,5.23
2023-01-04T02:50:41.563Z,3.70
2023-01-04T02:52:43.737Z,3.70
2023-01-04T02:54:48.168Z,5.60
2023-01-04T02:56:59.522Z,3.35
2023-01-04T02:59:10.863Z,3.30
2023-01-04T03:01:52.141Z,3.13
2023-01-04T03:04:18.903Z,2.65
2023-01-04T03:06:33.906Z,4.30
2023-01-04T03:08:36.075Z,4.18
2023-01-04T03:10:45.197Z,4.10
2023-01-04T03:12:50.592Z,4.13
2023-01-04T03:14:54.859Z,5.15
2023-01-04T03:16:57.128Z,4.57
2023-01-04T03:19:04.348Z,3.47
2023-01-04T03:21:08.493Z,3.55
2023-01-04T03:23:31.506Z,2.70
2023-01-04T03:25:59.196Z,3.75
2023-01-04T03:28:20.303Z,2.85
2023-01-04T03:30:41.803Z,3.15
2023-01-04T03:33:02.816Z,3.95
2023-01-04T03:35:23.527Z,4.40
2023-01-04T03:37:29.807Z,4.90
2023-01-04T03:39:56.400Z,3.78
2023-01-04T03:42:26.358Z,3.50
2023-01-04T03:44:50.116Z,4.57
2023-01-04T03:47:13.364Z,2.95
2023-01-04T03:49:21.664Z,3.15
2023-01-04T03:51:26.595Z,7.35
2023-01-04T03:53:29.444Z,2.83
2023-01-04T03:55:31.905Z,3.65
2023-01-04T03:59:38.560Z,4.95
2023-01-04T04:01:42.412Z,3.75
2023-01-04T04:04:03.315Z,2.72
2023-01-04T04:06:24.118Z,3.08
2023-01-04T04:08:29.378Z,2.83
2023-01-04T04:10:31.524Z,2.70
2023-01-04T04:12:33.699Z,3.92
2023-01-04T04:14:35.552Z,2.33
2023-01-04T04:16:37.812Z,4.97
2023-01-04T04:18:40.009Z,6.57
2023-01-04T04:20:42.255Z,4.65
2023-01-04T04:22:44.435Z,3.47
2023-01-04T04:24:46.545Z,2.63
2023-01-04T04:26:48.705Z,5.30
2023-01-04T04:28:51.293Z,5.18
2023-01-04T04:32:55.472Z,3.93
2023-01-04T04:34:57.684Z,3.20
2023-01-04T04:36:59.863Z,2.80
2023-01-04T04:39:02.236Z,3.83
2023-01-04T04:41:26.906Z,6.50
2023-01-04T04:43:29.043Z,4.28
2023-01-04T04:45:31.238Z,5.68
2023-01-04T04:47:33.413Z,2.50
2023-01-04T04:49:35.553Z,2.90
2023-01-04T04:51:38.245Z,3.90
2023-01-04T04:53:40.430Z,6.32
2023-01-04T04:55:42.715Z,4.10
2023-01-04T04:57:44.781Z,3.80
2023-01-04T04:59:46.837Z,3.22
2023-01-04T05:01:49.062Z,5.80
2023-01-04T05:03:51.324Z,5.25
2023-01-04T05:05:53.411Z,5.63
2023-01-04T05:07:55.788Z,4.38
2023-01-04T05:09:57.962Z,4.10
2023-01-04T05:12:18.998Z,4.05
2023-01-04T05:14:21.132Z,2.42
2023-01-04T05:16:23.257Z,2.38
2023-01-04T05:18:25.445Z,3.90
2023-01-04T05:20:27.634Z,6.85
2023-01-04T05:22:29.985Z,4.22
2023-01-04T05:24:32.105Z,3.20
2023-01-04T05:26:34.265Z,4.50
2023-01-04T05:28:36.373Z,3.40
2023-01-04T05:30:50.492Z,2.30
2023-01-04T05:32:52.653Z,3.15
2023-01-04T05:34:54.785Z,4.05
2023-01-04T05:36:56.925Z,2.90
2023-01-04T05:38:59.020Z,4.53
2023-01-04T05:41:01.111Z,3.60
2023-01-04T05:43:03.268Z,2.78
2023-01-04T05:45:05.711Z,4.05
2023-01-04T05:47:14.531Z,3.25
2023-01-04T05:49:17.233Z,4.60
2023-01-04T05:51:19.349Z,5.97
2023-01-04T05:53:21.676Z,3.05
2023-01-04T05:55:24.150Z,2.67
2023-01-04T05:59:28.363Z,4.78
2023-01-04T06:01:30.518Z,3.50
2023-01-04T06:03:32.806Z,3.05
2023-01-04T06:05:35.054Z,3.05
2023-01-04T06:07:37.801Z,5.10
2023-01-04T06:09:39.960Z,4.50
2023-01-04T06:11:42.114Z,3.15
2023-01-04T06:13:44.264Z,3.22
2023-01-04T06:15:46.338Z,4.47
2023-01-04T06:17:48.486Z,4.40
2023-01-04T06:19:50.655Z,4.00
2023-01-04T06:21:53.033Z,3.35
2023-01-04T06:23:55.201Z,4.15
2023-01-04T06:25:57.273Z,2.42
2023-01-04T06:27:59.402Z,3.42
2023-01-04T06:30:01.605Z,5.93
2023-01-04T06:32:03.755Z,2.65
2023-01-04T06:34:05.882Z,3.10
2023-01-04T06:36:19.219Z,4.07
2023-01-04T06:38:22.347Z,3.90
2023-01-04T06:40:24.539Z,6.78
2023-01-04T06:42:45.015Z,4.90
2023-01-04T06:44:47.214Z,2.70
2023-01-04T06:46:49.349Z,4.10
2023-01-04T06:48:53.640Z,3.38
2023-01-04T06:50:55.819Z,3.35
2023-01-04T06:52:57.983Z,3.30
2023-01-04T06:55:00.134Z,2.90
2023-01-04T06:57:02.280Z,1.77
2023-01-04T06:59:04.426Z,3.70
2023-01-04T07:01:06.658Z,3.65
2023-01-04T07:03:13.474Z,3.00
2023-01-04T07:05:17.805Z,3.85
2023-01-04T07:07:19.966Z,2.83
2023-01-04T07:09:22.125Z,7.50
2023-01-04T07:11:24.209Z,6.32
2023-01-04T07:13:26.479Z,2.72
2023-01-04T07:15:38.926Z,2.95
2023-01-04T07:17:42.560Z,3.05
2023-01-04T07:19:44.703Z,2.78
2023-01-04T07:21:46.900Z,3.58
2023-01-04T07:23:49.124Z,3.33
2023-01-04T07:25:51.287Z,1.75
2023-01-04T07:27:54.007Z,2.45
2023-01-04T07:29:56.123Z,2.67
2023-01-04T07:31:58.259Z,5.78
2023-01-04T07:34:00.403Z,4.85
2023-01-04T07:36:06.423Z,3.17
2023-01-04T07:38:08.603Z,3.97
2023-01-04T07:40:11.347Z,2.83
2023-01-04T07:42:13.516Z,2.85
2023-01-04T07:44:17.932Z,2.78
2023-01-04T07:46:22.031Z,2.72
2023-01-04T07:48:26.454Z,3.15
2023-01-04T07:50:29.038Z,2.20
2023-01-04T07:52:31.267Z,2.88
2023-01-04T07:54:33.625Z,2.83
2023-01-04T07:56:35.788Z,4.80
2023-01-04T07:58:39.982Z,4.43
2023-01-04T08:00:42.138Z,5.32
2023-01-04T08:02:44.525Z,5.45
2023-01-04T08:06:48.836Z,3.87
2023-01-04T08:08:50.958Z,3.70
2023-01-04T08:10:53.195Z,2.78
2023-01-04T08:12:55.386Z,4.40
2023-01-04T08:14:57.576Z,4.80
2023-01-04T08:16:59.704Z,3.65
2023-01-04T08:19:03.754Z,4.20
2023-01-04T08:21:09.437Z,5.55
2023-01-04T08:23:11.744Z,3.63
2023-01-04T08:25:13.873Z,5.38
2023-01-04T08:27:16.034Z,4.47
2023-01-04T08:29:18.260Z,3.92
2023-01-04T08:31:22.140Z,6.68
2023-01-04T08:33:24.445Z,6.80
2023-01-04T08:35:26.685Z,2.65
2023-01-04T08:37:30.072Z,4.72
2023-01-04T08:39:36.039Z,3.78
2023-01-04T08:44:13.073Z,3.67
2023-01-04T08:48:24.201Z,3.97
2023-01-04T08:50:26.784Z,3.72
2023-01-04T08:52:29.001Z,4.82
2023-01-04T08:54:31.443Z,6.13
2023-01-04T08:58:36.782Z,4.47
2023-01-04T09:00:38.913Z,4.32
2023-01-04T09:02:41.254Z,4.32
2023-01-04T09:06:45.714Z,3.50
2023-01-04T09:08:47.854Z,3.80
2023-01-04T09:10:50.046Z,4.38
2023-01-04T09:12:52.188Z,2.60
2023-01-04T09:14:54.333Z,4.10
2023-01-04T09:16:56.913Z,4.75
2023-01-04T09:18:59.110Z,3.03
2023-01-04T09:21:05.726Z,3.38
2023-01-04T09:23:07.949Z,3.83
2023-01-04T09:25:10.138Z,3.80
2023-01-04T09:27:12.419Z,2.50
2023-01-04T09:29:14.541Z,6.10
2023-01-04T09:31:21.692Z,4.68
2023-01-04T09:33:41.285Z,3.33
2023-01-04T09:35:46.025Z,6.45
2023-01-04T09:37:48.179Z,4.30
2023-01-04T09:39:50.332Z,3.55
2023-01-04T09:41:52.537Z,3.67
2023-01-04T09:44:09.954Z,4.82
2023-01-04T09:46:16.212Z,7.07
2023-01-04T09:48:25.295Z,6.00
2023-01-04T09:50:29.977Z,3.85
2023-01-04T09:53:02.338Z,7.20
2023-01-04T09:55:37.193Z,2.75
2023-01-04T09:57:36.860Z,4.70
2023-01-04T09:59:39.723Z,2.88
2023-01-04T10:02:00.802Z,2.70
2023-01-04T10:04:06.315Z,4.38
2023-01-04T10:06:12.708Z,4.07
2023-01-04T10:08:20.125Z,3.13
2023-01-04T10:10:27.903Z,4.30
2023-01-04T10:12:59.971Z,6.85
2023-01-04T10:15:21.323Z,3.13
2023-01-04T10:18:43.429Z,3.42
2023-01-04T10:21:17.727Z,3.50
2023-01-04T10:22:44.584Z,6.85
2023-01-04T10:24:55.060Z,4.18
2023-01-04T10:27:01.517Z,2.53
2023-01-04T10:29:03.682Z,3.20
2023-01-04T10:31:38.659Z,1.88
2023-01-04T10:33:46.463Z,1.92
2023-01-04T10:35:48.974Z,1.58
2023-01-04T10:39:55.696Z,0.50
2023-01-04T10:41:59.406Z,0.65
2023-01-04T10:44:12.280Z,0.40
2023-01-04T10:46:22.426Z,0.40
2023-01-04T10:48:47.161Z,0.32
2023-01-04T10:51:07.093Z,0.65
2023-01-04T10:53:14.721Z,0.82
2023-01-04T10:55:29.732Z,0.35
2023-01-04T10:57:37.686Z,0.50
2023-01-04T11:00:00.213Z,1.80
2023-01-04T11:02:02.610Z,0.20
2023-01-04T11:04:04.946Z,0.10
2023-01-04T11:06:41.955Z,1.05
2023-01-04T11:09:17.281Z,0.28
2023-01-04T11:11:27.626Z,0.40
2023-01-04T11:13:29.735Z,0.28
2023-01-04T11:15:31.949Z,0.28
2023-01-04T11:17:34.600Z,0.28
2023-01-04T11:19:36.524Z,0.32
2023-01-04T11:21:46.840Z,0.30
2023-01-04T11:23:48.711Z,0.40
2023-01-04T11:25:56.957Z,0.35
2023-01-04T11:28:23.371Z,1.70
2023-01-04T11:31:11.798Z,0.10
2023-01-04T11:33:21.004Z,0.80
2023-01-04T11:35:43.287Z,0.13
2023-01-04T11:37:45.116Z,0.43
2023-01-04T11:39:46.857Z,0.30
2023-01-04T11:42:04.516Z,0.10
2023-01-04T11:44:08.634Z,0.15
2023-01-04T11:46:19.381Z,0.10
2023-01-04T11:48:41.704Z,0.17
2023-01-04T11:50:48.254Z,0.63
2023-01-04T11:52:50.060Z,0.40
2023-01-04T11:54:51.756Z,0.10
2023-01-04T11:57:11.796Z,0.25
2023-01-04T12:01:43.441Z,1.65
2023-01-04T12:03:45.194Z,1.75
2023-01-04T12:05:46.909Z,0.10
2023-01-04T12:07:49.037Z,0.10
2023-01-04T12:09:50.891Z,2.03
2023-01-04T12:11:56.088Z,0.10
2023-01-04T12:13:59.716Z,0.00
2023-01-04T12:16:21.961Z,0.10
2023-01-04T12:18:28.617Z,0.10
2023-01-04T12:20:30.599Z,0.25
2023-01-04T12:22:36.877Z,0.17
2023-01-04T12:24:39.184Z,0.10
2023-01-04T12:26:42.495Z,0.40
2023-01-04T12:28:49.774Z,0.20
2023-01-04T12:30:51.630Z,0.20
2023-01-04T12:32:53.399Z,0.00
2023-01-04T12:34:55.330Z,0.00
2023-01-04T12:37:05.142Z,0.10
2023-01-04T12:39:16.425Z,0.30
2023-01-04T12:41:23.484Z,0.52
2023-01-04T12:46:08.725Z,0.10
2023-01-04T12:48:47.639Z,0.38
2023-01-04T12:51:31.069Z,0.20
2023-01-04T12:53:50.139Z,0.00
2023-01-04T12:55:53.808Z,0.35
2023-01-04T12:57:55.800Z,1.75
2023-01-04T13:00:06.529Z,1.15
2023-01-04T13:02:24.392Z,0.40
2023-01-04T13:04:32.049Z,0.00
2023-01-04T13:06:42.901Z,0.50
2023-01-04T13:08:53.001Z,0.28
2023-01-04T13:10:56.451Z,0.10
2023-01-04T13:13:37.247Z,0.10
2023-01-04T13:15:47.047Z,0.28
2023-01-04T13:17:50.225Z,0.10
2023-01-04T13:19:52.155Z,0.00
2023-01-04T13:21:55.251Z,0.38
2023-01-04T13:24:00.898Z,0.00
2023-01-04T13:26:28.134Z,0.00
2023-01-04T13:28:29.956Z,0.10
2023-01-04T13:30:37.912Z,0.03
2023-01-04T13:33:07.616Z,0.10
2023-01-04T13:35:05.767Z,0.10
2023-01-04T13:37:15.311Z,0.10
2023-01-04T13:39:18.860Z,0.10
2023-01-04T13:41:22.893Z,0.00
2023-01-04T13:43:44.324Z,0.00
2023-01-04T13:46:08.020Z,0.00
2023-01-04T13:48:15.774Z,0.65
2023-01-04T13:50:32.360Z,0.70
2023-01-04T13:52:54.855Z,0.10
2023-01-04T13:55:20.151Z,0.95
2023-01-04T13:57:22.079Z,0.20
2023-01-04T13:59:23.992Z,0.10
2023-01-04T14:01:29.013Z,0.10
2023-01-04T14:03:54.053Z,0.00
2023-01-04T14:06:24.531Z,0.10
2023-01-04T14:08:38.084Z,0.05
2023-01-04T14:10:43.855Z,0.10
2023-01-04T14:12:47.182Z,0.30
2023-01-04T14:15:01.014Z,0.20
2023-01-04T14:17:17.224Z,0.20
2023-01-04T14:19:46.699Z,0.10
2023-01-04T14:21:49.508Z,0.20
2023-01-04T14:23:51.307Z,0.10
2023-01-04T14:26:01.693Z,0.10
2023-01-04T14:28:22.493Z,0.15
2023-01-04T14:30:25.153Z,0.10
2023-01-04T14:32:27.268Z,0.40
2023-01-04T14:34:29.000Z,0.10
2023-01-04T14:36:32.537Z,0.38
2023-01-04T14:38:37.407Z,0.20
2023-01-04T14:40:40.778Z,2.42
2023-01-04T14:42:42.541Z,5.72
2023-01-04T14:44:44.379Z,8.32
2023-01-04T14:46:50.206Z,0.30
2023-01-04T14:48:52.152Z,0.03
2023-01-04T14:50:53.855Z,0.03
2023-01-04T14:52:55.581Z,0.00
2023-01-04T14:54:59.301Z,0.20
2023-01-04T14:57:06.863Z,0.30
2023-01-04T14:59:09.063Z,0.82
2023-01-04T15:01:12.233Z,1.13
2023-01-04T15:03:14.197Z,0.08
2023-01-04T15:05:16.305Z,0.00
2023-01-04T15:07:37.285Z,0.00
2023-01-04T15:09:39.223Z,0.00
2023-01-04T15:11:42.167Z,0.10
2023-01-04T15:13:44.502Z,0.05
2023-01-04T15:17:48.536Z,0.10
2023-01-04T15:21:52.079Z,0.00
2023-01-04T15:23:55.986Z,0.38
2023-01-04T15:25:58.110Z,0.10
2023-01-04T15:27:59.895Z,0.00
2023-01-04T15:30:01.773Z,0.00
2023-01-04T15:32:03.686Z,0.00
2023-01-04T15:34:05.708Z,0.82
2023-01-04T15:36:12.261Z,0.08
2023-01-04T15:38:19.548Z,0.08
2023-01-04T15:40:21.413Z,0.10
2023-01-04T15:42:41.993Z,0.17
2023-01-04T15:44:44.272Z,0.00
2023-01-04T15:48:48.492Z,0.00
2023-01-04T15:50:50.833Z,0.00
2023-01-04T15:54:54.754Z,0.00
2023-01-04T15:56:57.043Z,1.85
2023-01-04T15:58:58.961Z,0.10
2023-01-04T16:01:07.546Z,0.00
2023-01-04T16:03:09.457Z,0.00
2023-01-04T16:05:11.746Z,0.00
2023-01-04T16:07:13.900Z,0.03
2023-01-04T16:09:16.019Z,0.00
2023-01-04T16:11:21.060Z,0.30
2023-01-04T16:13:28.383Z,0.00
2023-01-04T16:15:30.256Z,0.68
2023-01-04T16:17:32.251Z,0.08
2023-01-04T16:19:34.421Z,0.10
2023-01-04T16:21:36.148Z,0.32
2023-01-04T16:23:38.770Z,0.10
2023-01-04T16:25:40.610Z,0.30
2023-01-04T16:27:43.961Z,0.40
2023-01-04T16:29:45.775Z,0.10
2023-01-04T16:31:47.574Z,0.00
2023-01-04T16:33:53.821Z,0.15
2023-01-04T16:36:03.389Z,0.10
2023-01-04T16:38:05.086Z,0.60
2023-01-04T16:40:08.459Z,0.32
2023-01-04T16:42:11.311Z,0.00
2023-01-04T16:46:25.799Z,0.10
2023-01-04T16:48:27.525Z,0.10
2023-01-04T16:50:29.254Z,0.35
2023-01-04T16:52:30.999Z,0.00
2023-01-04T16:54:32.823Z,0.13
2023-01-04T16:56:35.406Z,0.35
2023-01-04T16:58:37.704Z,0.20
2023-01-04T17:00:39.522Z,0.47
2023-01-04T17:02:41.333Z,1.48
2023-01-04T17:04:43.135Z,0.30
2023-01-04T17:06:46.167Z,0.00
2023-01-04T17:08:49.709Z,0.28
2023-01-04T17:10:51.471Z,0.10
2023-01-04T17:12:53.196Z,0.35
2023-01-04T17:15:23.895Z,0.10
2023-01-04T17:17:18.453Z,0.20
2023-01-04T17:19:20.252Z,0.00
2023-01-04T17:21:33.678Z,0.22
2023-01-04T17:23:42.456Z,0.00
2023-01-04T17:25:44.236Z,0.10
2023-01-04T17:27:45.939Z,0.00
2023-01-04T17:29:47.995Z,0.20
2023-01-04T17:31:49.928Z,0.98
2023-01-04T17:33:52.046Z,0.13
2023-01-04T17:35:53.933Z,0.10
2023-01-04T17:37:56.084Z,0.10
2023-01-04T17:39:57.812Z,0.00
2023-01-04T17:41:59.593Z,0.00
2023-01-04T17:44:04.321Z,0.05
2023-01-04T17:46:08.800Z,1.60
2023-01-04T17:48:10.692Z,0.08
2023-01-04T17:50:12.688Z,0.00
2023-01-04T17:52:20.889Z,0.08
2023-01-04T17:54:26.999Z,0.10
2023-01-04T17:56:30.388Z,0.10
2023-01-04T17:58:32.501Z,0.03
2023-01-04T18:00:34.230Z,0.00
2023-01-04T18:02:38.656Z,0.00
2023-01-04T18:04:40.408Z,0.03
2023-01-04T18:06:42.133Z,0.10
2023-01-04T18:08:44.625Z,0.43
2023-01-04T18:11:06.954Z,0.00
2023-01-04T18:13:08.058Z,0.00
2023-01-04T18:15:10.412Z,0.35
2023-01-04T18:19:14.006Z,0.08
2023-01-04T18:21:30.046Z,0.15
2023-01-04T18:23:32.085Z,0.10
2023-01-04T18:25:34.108Z,0.10
2023-01-04T18:27:35.849Z,0.20
2023-01-04T18:29:37.586Z,0.10
2023-01-04T18:31:40.589Z,0.20
2023-01-04T18:33:43.904Z,0.00
2023-01-04T18:35:45.820Z,0.10
2023-01-04T18:37:47.599Z,0.10
2023-01-04T18:39:49.577Z,0.10
2023-01-04T18:41:51.499Z,0.15
2023-01-04T18:44:13.328Z,0.00
2023-01-04T18:46:16.604Z,0.30
2023-01-04T18:48:18.509Z,0.10
2023-01-04T18:50:20.326Z,0.00
2023-01-04T18:52:22.163Z,0.03
2023-01-04T18:54:23.967Z,0.05
2023-01-04T18:56:27.759Z,0.03
2023-01-04T18:58:29.643Z,0.10
2023-01-04T19:00:31.517Z,0.57
2023-01-04T19:02:33.729Z,0.13
2023-01-04T19:06:40.354Z,0.25
2023-01-04T19:08:43.369Z,0.05
2023-01-04T19:10:45.346Z,0.35
2023-01-04T19:12:47.546Z,0.00
2023-01-04T19:14:49.895Z,0.00
2023-01-04T19:18:57.162Z,0.00
2023-01-04T19:21:01.578Z,0.10
2023-01-04T19:23:03.465Z,0.10
2023-01-04T19:25:05.920Z,0.17
2023-01-04T19:27:12.005Z,0.00
2023-01-04T19:29:13.936Z,0.00
2023-01-04T19:31:18.295Z,0.10
2023-01-04T19:33:20.419Z,0.00
2023-01-04T19:35:22.330Z,0.03
2023-01-04T19:37:24.153Z,0.03
2023-01-04T19:39:26.095Z,0.10
2023-01-04T19:41:33.951Z,0.00
2023-01-04T19:43:36.318Z,0.00
2023-01-04T19:45:39.432Z,0.00
2023-01-04T19:47:41.320Z,0.00
2023-01-04T19:49:43.077Z,0.03
2023-01-04T19:51:46.383Z,0.00
2023-01-04T19:53:48.263Z,0.10
2023-01-04T19:55:50.227Z,0.17
2023-01-04T19:57:52.038Z,0.00
2023-01-04T19:59:54.339Z,0.10
2023-01-04T20:03:58.331Z,0.00
2023-01-04T20:06:05.239Z,0.17
2023-01-04T20:08:07.728Z,0.10
2023-01-04T20:10:14.219Z,1.00
2023-01-04T20:12:16.700Z,0.20
2023-01-04T20:14:18.829Z,0.10
2023-01-04T20:16:20.650Z,0.00
2023-01-04T20:18:26.359Z,0.25
2023-01-04T20:20:28.637Z,0.05
2023-01-04T20:22:32.294Z,0.05
2023-01-04T20:24:34.250Z,0.00
2023-01-04T20:26:36.861Z,0.45
2023-01-04T20:28:39.146Z,0.00
2023-01-04T20:32:46.031Z,0.00
2023-01-04T20:34:47.747Z,0.00
2023-01-04T20:36:49.497Z,0.10
2023-01-04T20:38:51.191Z,0.22
2023-01-04T20:40:52.929Z,0.15
2023-01-04T20:43:13.617Z,0.45
2023-01-04T20:45:15.635Z,0.10
2023-01-04T20:47:17.312Z,0.00
2023-01-04T20:49:19.204Z,0.05
2023-01-04T20:51:23.969Z,0.00
2023-01-04T20:53:25.813Z,0.00
2023-01-04T20:55:28.095Z,0.00
2023-01-04T20:57:31.227Z,0.20
2023-01-04T20:59:33.508Z,0.00
2023-01-04T21:01:36.786Z,0.32
2023-01-04T21:03:39.371Z,0.00
2023-01-04T21:05:45.242Z,0.22
2023-01-04T21:07:46.964Z,0.10
2023-01-04T21:09:48.714Z,0.10
2023-01-04T21:11:50.419Z,0.00
2023-01-04T21:13:52.904Z,0.00
2023-01-04T21:15:55.584Z,0.00
2023-01-04T21:17:57.410Z,0.03
2023-01-04T21:19:59.338Z,0.10
2023-01-04T21:22:04.238Z,0.00
2023-01-04T21:24:06.539Z,0.00
2023-01-04T21:28:12.465Z,0.00
2023-01-04T21:30:14.473Z,0.00
2023-01-04T21:32:16.614Z,0.10
2023-01-04T21:34:22.657Z,0.00
2023-01-04T21:36:26.469Z,0.05
2023-01-04T21:38:28.319Z,0.10
2023-01-04T21:40:30.322Z,0.93
2023-01-04T21:42:32.203Z,0.00
2023-01-04T21:44:34.061Z,0.13
2023-01-04T21:46:36.747Z,0.03
2023-01-04T21:48:38.852Z,0.00
2023-01-04T21:50:40.614Z,0.00
2023-01-04T21:52:42.457Z,0.03
2023-01-04T21:54:44.211Z,0.00
2023-01-04T21:56:46.413Z,0.55
2023-01-04T21:58:48.469Z,0.10
2023-01-04T22:00:50.360Z,0.20
2023-01-04T22:02:52.788Z,0.20
2023-01-04T22:04:54.634Z,0.03
2023-01-04T22:06:59.765Z,0.00
2023-01-04T22:09:03.863Z,0.10
2023-01-04T22:11:07.719Z,0.10
2023-01-04T22:13:10.380Z,0.00
2023-01-04T22:17:14.485Z,0.20
2023-01-04T22:19:16.271Z,0.00
2023-01-04T22:21:21.410Z,0.00
2023-01-04T22:23:26.223Z,0.10
2023-01-04T22:25:28.416Z,0.00
2023-01-04T22:27:30.304Z,0.10
2023-01-04T22:29:32.107Z,0.10
2023-01-04T22:31:34.026Z,0.00
2023-01-04T22:33:36.948Z,0.17
2023-01-04T22:35:40.413Z,0.00
2023-01-04T22:37:42.130Z,0.00
2023-01-04T22:39:43.864Z,0.10
2023-01-04T22:41:45.732Z,0.03
2023-01-04T22:43:53.322Z,0.00
2023-01-04T22:46:02.143Z,0.00
2023-01-04T22:48:03.955Z,0.03
2023-01-04T22:50:06.266Z,0.00
2023-01-04T22:52:08.456Z,0.10
2023-01-04T22:54:10.456Z,0.10
2023-01-04T22:56:20.156Z,0.00
2023-01-04T22:58:23.169Z,0.00
2023-01-04T23:00:25.832Z,0.10
2023-01-04T23:02:27.769Z,1.55
2023-01-04T23:06:32.955Z,0.10
2023-01-04T23:08:35.921Z,0.63
2023-01-04T23:10:37.763Z,0.43
2023-01-04T23:12:39.527Z,0.00
2023-01-04T23:14:42.489Z,0.00
2023-01-04T23:16:45.420Z,0.05
2023-01-04T23:18:47.315Z,0.00
2023-01-04T23:20:54.980Z,0.10
2023-01-04T23:22:56.731Z,0.03
2023-01-04T23:24:58.400Z,0.00
2023-01-04T23:27:00.573Z,0.10
2023-01-04T23:29:03.412Z,0.00
2023-01-04T23:31:07.788Z,0.10
2023-01-04T23:33:10.832Z,0.00
2023-01-04T23:35:12.596Z,0.00
2023-01-04T23:37:14.421Z,0.10
2023-01-04T23:39:17.030Z,0.00
2023-01-04T23:41:19.901Z,0.00
2023-01-04T23:43:21.667Z,0.00
2023-01-04T23:45:23.896Z,0.15
2023-01-04T23:47:25.598Z,1.55
2023-01-04T23:49:30.190Z,0.00
2023-01-04T23:51:32.031Z,0.00
2023-01-04T23:53:33.973Z,0.00
2023-01-04T23:55:35.730Z,0.00
2023-01-04T23:57:37.490Z,0.00
2023-01-04T23:59:39.446Z,0.20
